Time;durP1;ratioP1;P1;durP2;ratioP2;P2;SDS_P1;SDS_P2;PMS_P1;PMS_P2;Temp;Humidity;BMP_temperature;BMP_pressure;BME280_temperature;BME280_humidity;BME280_pressure;Samples;Min_cycle;Max_cycle;Signal;HPM_P1;HPM_P2
2022/02/09 00:07:02;;;;;;;5.25;1.50;;;;;;;5.75;100.00;101226.98;5155868;56;1139019;-78
2022/02/09 00:22:39;;;;;;;5.50;1.37;;;;;;;5.72;100.00;101238.47;5156003;56;1139044;-78
2022/02/09 00:38:31;;;;;;;5.87;1.60;;;;;;;5.58;100.00;101254.00;5152096;57;1139277;-74
2022/02/09 00:43:52;;;;;;;5.20;2.10;;;;;;;5.56;100.00;101251.90;5147333;57;1138966;-75
2022/02/09 01:58:51;;;;;;;1.30;0.90;;;;;;;5.65;100.00;101271.19;5132135;57;1139145;-73
2022/02/09 02:03:56;;;;;;;5.27;1.60;;;;;;;5.64;100.00;101274.73;5131817;57;1139229;-73
2022/02/09 02:09:03;;;;;;;4.13;1.33;;;;;;;5.64;100.00;101278.20;5132093;56;1139165;-73
2022/02/09 02:40:47;;;;;;;2.45;0.82;;;;;;;5.80;100.00;101275.73;5127555;57;1136858;-73
2022/02/09 03:18:01;;;;;;;2.63;1.07;;;;;;;5.58;100.00;101272.36;5127222;57;1138829;-73
2022/02/09 03:23:13;;;;;;;3.20;0.98;;;;;;;5.58;100.00;101282.41;5124931;57;1138992;-73
2022/02/09 03:44:24;;;;;;;3.00;1.07;;;;;;;5.60;100.00;101279.25;5048847;56;1139185;-73
2022/02/09 03:59:42;;;;;;;4.83;1.93;;;;;;;5.55;100.00;101280.37;5048600;58;1139062;-73
2022/02/09 04:04:55;;;;;;;6.07;1.30;;;;;;;5.54;100.00;101268.17;5048631;56;1138964;-73
2022/02/09 04:09:59;;;;;;;2.37;1.37;;;;;;;5.52;100.00;101265.61;5048493;58;1137228;-74
2022/02/09 04:57:44;;;;;;;4.33;0.73;;;;;;;5.82;100.00;101242.36;5151643;57;1139060;-73
2022/02/09 05:03:33;;;;;;;3.40;0.90;;;;;;;5.85;100.00;101233.50;5150775;57;1139177;-74
2022/02/09 05:19:17;;;;;;;4.20;0.60;;;;;;;5.93;100.00;101247.17;5141045;56;1139146;-73
2022/02/09 05:29:13;;;;;;;1.27;0.70;;;;;;;5.99;100.00;101255.59;5144358;57;1139099;-73
2022/02/09 05:34:18;;;;;;;3.47;0.93;;;;;;;6.01;100.00;101255.52;5131329;56;1138711;-75
2022/02/09 05:39:24;;;;;;;0.90;0.70;;;;;;;6.02;100.00;101257.69;5081727;57;1138965;-74
2022/02/09 05:44:30;;;;;;;0.97;0.70;;;;;;;6.05;100.00;101259.72;5049028;58;1139029;-74
2022/02/09 06:00:05;;;;;;;;;;;;;;;6.09;100.00;101258.66;5052756;56;1138982;-74
2022/02/09 06:05:16;;;;;;;3.33;1.17;;;;;;;6.08;100.00;101261.35;5050237;58;976253;-74
2022/02/09 06:10:27;;;;;;;4.60;1.00;;;;;;;6.06;100.00;101262.73;5049082;58;1135080;-73
2022/02/09 06:20:46;;;;;;;1.17;0.90;;;;;;;6.00;100.00;101263.02;5049031;58;1137017;-73
2022/02/09 06:25:52;;;;;;;5.60;1.20;;;;;;;5.99;100.00;101262.62;5049157;56;1137278;-74
2022/02/09 06:30:58;;;;;;;292.63;132.70;;;;;;;5.97;100.00;101261.83;5064850;58;1136935;-74
2022/02/09 06:36:08;;;;;;;57.37;29.83;;;;;;;5.97;100.00;101266.63;5115910;56;1145252;-73
2022/02/09 06:41:12;;;;;;;29.77;17.20;;;;;;;6.00;100.00;101270.89;5156376;57;1141548;-72
2022/02/09 06:46:18;;;;;;;4.13;2.80;;;;;;;6.01;100.00;101266.03;5156340;56;1141309;-73
2022/02/09 06:51:31;;;;;;;1.30;1.20;;;;;;;5.98;100.00;101268.33;5156245;57;1136977;-75
2022/02/09 07:01:53;;;;;;;3.63;1.63;;;;;;;5.94;100.00;101256.29;5155977;56;1137180;-74
2022/02/09 07:06:59;;;;;;;7.17;4.67;;;;;;;5.92;100.00;101261.22;5156168;56;1136961;-73
2022/02/09 07:12:05;;;;;;;6.33;3.83;;;;;;;5.90;100.00;101251.25;5156479;57;1134879;-74
2022/02/09 07:17:11;;;;;;;3.33;3.03;;;;;;;5.93;100.00;101248.02;5176085;57;21173;-73
2022/02/09 07:22:23;;;;;;;3.60;3.13;;;;;;;5.96;100.00;101241.29;5156798;57;1134931;-74
2022/02/09 07:27:39;;;;;;;2.10;2.00;;;;;;;6.02;100.00;101228.80;5155410;57;1139169;-74
2022/02/09 07:32:35;;;;;;;7.67;3.50;;;;;;;6.05;100.00;101232.61;5133784;56;1139277;-73
2022/02/09 07:37:40;;;;;;;5.07;4.67;;;;;;;6.08;100.00;101221.50;5127945;57;1138878;-74
2022/02/09 07:42:55;;;;;;;3.23;2.93;;;;;;;6.15;100.00;101230.77;5127358;57;1139267;-75
2022/02/09 07:53:26;;;;;;;5.40;4.67;;;;;;;6.26;100.00;101221.91;5127201;57;1138949;-74
2022/02/09 07:58:30;;;;;;;19.97;8.53;;;;;;;6.32;100.00;101216.36;5127326;57;1139063;-73
2022/02/09 08:03:36;;;;;;;36.70;11.03;;;;;;;6.41;100.00;101212.45;5127214;57;1141149;-73
2022/02/09 08:08:43;;;;;;;11.90;4.67;;;;;;;6.49;100.00;101209.43;5127205;57;1143205;-73
2022/02/09 08:30:01;;;;;;;28.32;10.45;;;;;;;6.81;100.00;101211.30;5126522;57;1143126;-74
2022/02/09 08:34:52;;;;;;;35.23;14.53;;;;;;;6.89;100.00;101197.74;5124820;57;1143381;-74
2022/02/09 08:39:58;;;;;;;36.53;15.35;;;;;;;6.96;100.00;101189.48;5126124;57;1143199;-74
2022/02/09 08:45:04;;;;;;;27.37;11.57;;;;;;;7.06;100.00;101192.00;5130757;57;1143196;-72
2022/02/09 08:50:10;;;;;;;26.87;9.67;;;;;;;7.15;100.00;101189.37;5131384;56;1143462;-74
2022/02/09 08:55:17;;;;;;;69.47;37.20;;;;;;;7.23;100.00;101196.37;5131290;57;1141195;-74
2022/02/09 09:00:27;;;;;;;65.67;45.43;;;;;;;7.29;100.00;101191.27;5131369;57;1143150;-75
2022/02/09 09:05:41;;;;;;;42.67;12.53;;;;;;;7.37;100.00;101199.59;5131093;56;1143176;-74
2022/02/09 09:10:47;;;;;;;18.97;6.73;;;;;;;7.41;100.00;101204.61;5129456;57;1143402;-74
2022/02/09 10:04:19;;;;;;;5.00;4.50;;;;;;;7.66;100.00;101197.55;5131429;57;1139040;-73
2022/02/09 10:36:19;;;;;;;12.27;7.17;;;;;;;7.80;100.00;101191.52;5026022;58;1141558;-79
2022/02/09 10:41:28;;;;;;;14.87;6.80;;;;;;;7.85;100.00;101197.39;4984338;58;1138941;-73
2022/02/09 10:46:29;;;;;;;12.37;7.43;;;;;;;7.89;100.00;101192.34;4984343;59;1139046;-74
2022/02/09 10:51:41;;;;;;;10.30;6.83;;;;;;;7.89;100.00;101192.34;4985576;59;1139281;-73
2022/02/09 10:56:52;;;;;;;7.00;6.05;;;;;;;7.89;100.00;101191.49;4984965;58;1139074;-77
2022/02/09 11:02:02;;;;;;;7.87;5.53;;;;;;;7.88;100.00;101181.42;4985420;59;1137264;-69
2022/02/09 11:07:08;;;;;;;7.43;5.50;;;;;;;7.93;100.00;101179.39;4990247;57;1136811;-81
2022/02/09 11:12:14;;;;;;;10.07;7.60;;;;;;;7.96;100.00;101177.03;5082133;57;1136918;-69
2022/02/09 11:17:20;;;;;;;6.47;5.77;;;;;;;8.01;100.00;101174.53;5072301;58;1139045;-77
2022/02/09 11:22:31;;;;;;;5.87;5.20;;;;;;;8.06;100.00;101183.50;5072178;58;1136957;-72
2022/02/09 11:27:37;;;;;;;6.10;4.60;;;;;;;8.09;100.00;101185.97;5151432;57;1137203;-77
2022/02/09 11:33:11;;;;;;;6.58;5.42;;;;;;;8.11;100.00;101188.87;5151840;57;1136997;-74
2022/02/09 11:59:51;;;;;;;6.43;4.97;;;;;;;8.07;100.00;101171.56;5134440;57;1138986;-74
2022/02/09 12:10:08;;;;;;;8.57;6.47;;;;;;;8.12;100.00;101174.77;5135738;57;1138938;-74
2022/02/09 12:15:44;;;;;;;12.00;7.47;;;;;;;8.16;100.00;101173.28;5136027;57;1139018;-73
2022/02/09 12:20:48;;;;;;;6.13;3.97;;;;;;;8.18;100.00;101168.30;5134725;56;1141034;-74
2022/02/09 12:25:56;;;;;;;9.27;6.77;;;;;;;8.13;100.00;101154.06;5136047;56;1139018;-73
2022/02/09 12:31:10;;;;;;;4.83;3.83;;;;;;;8.10;100.00;101163.45;5135903;57;1139223;-71
2022/02/09 12:36:22;;;;;;;5.43;4.93;;;;;;;8.08;100.00;101152.19;5147649;57;1139041;-73
2022/02/09 12:41:31;;;;;;;5.22;4.00;;;;;;;8.04;100.00;101159.02;5151197;57;1139218;-74
2022/02/09 12:46:38;;;;;;;8.83;5.80;;;;;;;8.03;100.00;101129.66;5151406;57;1138967;-73
2022/02/09 12:51:48;;;;;;;5.83;4.27;;;;;;;8.07;100.00;101142.58;5151395;57;1136981;-73
2022/02/09 12:56:56;;;;;;;9.50;4.90;;;;;;;8.08;100.00;101140.33;5151654;57;1136953;-74
2022/02/09 13:02:02;;;;;;;8.50;5.00;;;;;;;8.10;100.00;101140.22;5151661;57;1137018;-72
2022/02/09 13:07:14;;;;;;;8.33;4.57;;;;;;;8.11;100.00;101134.86;5151594;57;1136915;-73
2022/02/09 13:12:28;;;;;;;7.40;4.43;;;;;;;8.14;100.00;101128.57;5151341;57;1136872;-74
2022/02/09 13:18:10;;;;;;;6.50;4.43;;;;;;;8.16;100.00;101124.53;5151707;55;1136914;-72
2022/02/09 14:50:01;;;;;;;28.40;19.45;;;;;;;7.96;100.00;101095.38;5068470;57;1143437;-74
2022/02/09 15:10:08;;;;;;;14.27;7.23;;;;;;;7.95;100.00;101105.53;5068191;57;1139073;-74
2022/02/09 15:15:26;;;;;;;9.87;6.03;;;;;;;7.94;100.00;101102.08;5067645;57;1141101;-74
2022/02/09 15:25:41;;;;;;;6.15;4.03;;;;;;;7.94;100.00;101098.59;4987502;58;1140999;-74
2022/02/09 15:30:53;;;;;;;334.87;177.83;;;;;;;7.92;100.00;101095.20;4987321;58;1139329;-74
2022/02/09 15:35:57;;;;;;;65.73;26.07;;;;;;;7.97;100.00;101096.61;5003337;57;1147631;-74
2022/02/09 15:41:18;;;;;;;40.93;18.83;;;;;;;7.97;100.00;101103.66;5074246;57;1143057;-75
2022/02/09 16:23:37;;;;;;;6.13;2.43;;;;;;;7.89;100.00;101113.34;5076692;58;1136881;-73
2022/02/09 16:34:39;;;;;;;9.90;6.87;;;;;;;7.87;100.00;101123.56;5161247;57;1135233;-73
2022/02/09 16:44:38;;;;;;;30.73;20.53;;;;;;;7.80;100.00;101111.67;5106742;56;1138990;-74
2022/02/09 16:50:01;;;;;;;9.37;5.00;;;;;;;7.80;100.00;101115.62;5164713;56;1143218;-74
2022/02/09 16:55:50;;;;;;;10.93;5.12;;;;;;;7.79;100.00;101126.66;5164482;56;1139089;-74
2022/02/09 17:15:31;;;;;;;11.63;5.10;;;;;;;7.76;100.00;101134.72;5161862;56;1139038;-73
2022/02/09 17:21:34;;;;;;;23.27;14.07;;;;;;;7.71;100.00;101119.16;5165805;56;1139024;-72
2022/02/09 17:26:41;;;;;;;16.13;10.53;;;;;;;7.71;100.00;101132.33;5164470;56;1143110;-72
2022/02/09 17:31:56;;;;;;;39.25;27.70;;;;;;;7.72;100.00;101131.40;5164281;56;1143148;-79
2022/02/09 17:58:18;;;;;;;12.88;4.67;;;;;;;7.66;100.00;101132.20;5149022;57;1137219;-78
2022/02/09 18:03:22;;;;;;;6.03;4.05;;;;;;;7.65;100.00;101129.17;5152645;57;1138968;-73
2022/02/09 18:08:30;;;;;;;6.73;4.60;;;;;;;7.61;100.00;101136.42;5130852;56;1137458;-72
2022/02/09 19:17:26;;;;;;;13.53;5.55;;;;;;;7.17;100.00;101157.73;5165911;56;1139208;-76
2022/02/09 19:28:51;;;;;;;9.13;4.90;;;;;;;7.14;100.00;101158.73;5032545;57;1141291;-76
2022/02/09 19:49:21;;;;;;;8.80;6.00;;;;;;;7.14;100.00;101168.41;5136114;57;1138976;-76
2022/02/09 19:54:41;;;;;;;8.77;4.97;;;;;;;7.12;100.00;101159.73;5134411;57;1137101;-73
2022/02/09 19:59:36;;;;;;;16.95;6.08;;;;;;;7.10;100.00;101155.02;5050813;58;1136900;-76
2022/02/09 20:04:40;;;;;;;15.40;7.80;;;;;;;7.09;100.00;101152.86;5052547;58;1136966;-74
2022/02/09 20:09:47;;;;;;;27.53;13.77;;;;;;;7.06;100.00;101151.23;5086836;56;1136985;-78
2022/02/09 20:14:53;;;;;;;28.47;12.90;;;;;;;7.03;100.00;101153.17;5200449;56;1143141;-73
2022/02/09 20:20:01;;;;;;;17.33;7.53;;;;;;;7.02;100.00;101167.28;5197827;56;1143131;-76
2022/02/09 20:25:08;;;;;;;10.40;6.03;;;;;;;6.98;100.00;101161.32;5185873;56;1141168;-76
2022/02/09 20:30:18;;;;;;;18.87;9.87;;;;;;;6.97;100.00;101156.14;5189491;56;1141014;-74
2022/02/09 20:35:22;;;;;;;14.07;9.00;;;;;;;6.98;100.00;101161.78;5201876;56;1141009;-70
2022/02/09 20:40:50;;;;;;;11.30;6.10;;;;;;;6.98;100.00;101163.95;5186569;56;1141272;-77
2022/02/09 20:45:56;;;;;;;8.77;5.57;;;;;;;6.97;100.00;101154.36;5175369;56;1141106;-73
2022/02/09 20:51:03;;;;;;;5.00;4.43;;;;;;;6.98;100.00;101160.00;5178075;56;1138947;-76
2022/02/09 20:56:09;;;;;;;8.13;5.13;;;;;;;6.98;100.00;101152.58;5176284;56;1139157;-77
2022/02/09 21:01:19;;;;;;;10.30;5.57;;;;;;;6.99;100.00;101145.93;5185830;56;1139281;-76
2022/02/09 21:17:24;;;;;;;5.27;4.77;;;;;;;7.02;100.00;101145.77;5139361;56;1138897;-77
2022/02/09 21:54:37;;;;;;;14.73;7.43;;;;;;;7.14;100.00;101156.56;5135827;57;1139074;-73
2022/02/09 22:48:35;;;;;;;14.53;5.87;;;;;;;7.20;100.00;101137.81;5132039;57;1141393;-75
2022/02/09 22:58:02;;;;;;;6.90;5.43;;;;;;;7.19;100.00;101132.16;5131749;57;1141086;-75
2022/02/09 23:03:10;;;;;;;10.90;6.77;;;;;;;7.19;100.00;101135.64;5131551;57;1138963;-79
2022/02/09 23:13:47;;;;;;;37.37;15.37;;;;;;;7.20;100.00;101132.55;4989098;59;1141156;-70
2022/02/09 23:52:57;;;;;;;15.40;8.03;;;;;;;7.22;100.00;101137.27;4988654;59;1139065;-76
